sensor_id;sensor_type;location;lat;lon;timestamp;temperature;humidity
37874;DHT22;23709;48.078;11.684;2023-07-13T11:08:58;22.50;99.90
37874;DHT22;23709;48.078;11.684;2023-07-13T11:11:34;22.80;99.90
37874;DHT22;23709;48.078;11.684;2023-07-13T11:14:31;22.80;99.90
37874;DHT22;23709;48.078;11.684;2023-07-13T11:17:23;22.80;99.90
37874;DHT22;23709;48.078;11.684;2023-07-13T11:19:53;22.90;98.50
37874;DHT22;23709;48.078;11.684;2023-07-13T11:22:40;22.60;97.70
37874;DHT22;23709;48.078;11.684;2023-07-13T11:27:52;22.70;98.80
37874;DHT22;23709;48.078;11.684;2023-07-13T11:30:37;22.70;96.90
37874;DHT22;23709;48.078;11.684;2023-07-13T11:33:16;22.70;98.50
37874;DHT22;23709;48.078;11.684;2023-07-13T11:36:05;22.70;97.60
37874;DHT22;23709;48.078;11.684;2023-07-13T11:41:51;23.30;99.70
37874;DHT22;23709;48.078;11.684;2023-07-13T11:44:22;23.30;97.60
37874;DHT22;23709;48.078;11.684;2023-07-13T11:46:56;23.80;97.30
37874;DHT22;23709;48.078;11.684;2023-07-13T11:49:30;24.20;95.40
37874;DHT22;23709;48.078;11.684;2023-07-13T11:52:04;24.30;95.40
37874;DHT22;23709;48.078;11.684;2023-07-13T11:54:49;24.00;92.80
37874;DHT22;23709;48.078;11.684;2023-07-13T11:57:32;24.00;93.40
37874;DHT22;23709;48.078;11.684;2023-07-13T12:00:15;23.70;93.70
37874;DHT22;23709;48.078;11.684;2023-07-13T12:02:49;23.60;93.80
37874;DHT22;23709;48.078;11.684;2023-07-13T12:05:22;23.60;94.10
37874;DHT22;23709;48.078;11.684;2023-07-13T12:07:56;24.20;92.70
37874;DHT22;23709;48.078;11.684;2023-07-13T12:10:29;24.70;89.30
37874;DHT22;23709;48.078;11.684;2023-07-13T12:13:04;25.10;91.00
37874;DHT22;23709;48.078;11.684;2023-07-13T12:15:40;25.20;90.20
37874;DHT22;23709;48.078;11.684;2023-07-13T12:18:14;25.30;86.00
37874;DHT22;23709;48.078;11.684;2023-07-13T12:20:50;25.00;84.30
37874;DHT22;23709;48.078;11.684;2023-07-13T12:23:34;25.30;90.00
37874;DHT22;23709;48.078;11.684;2023-07-13T12:26:06;25.30;83.50
37874;DHT22;23709;48.078;11.684;2023-07-13T12:28:48;25.00;79.10
37874;DHT22;23709;48.078;11.684;2023-07-13T12:31:43;25.20;81.20
37874;DHT22;23709;48.078;11.684;2023-07-13T12:34:17;25.10;78.70
37874;DHT22;23709;48.078;11.684;2023-07-13T12:36:51;25.60;84.30
37874;DHT22;23709;48.078;11.684;2023-07-13T12:39:33;25.60;78.40
37874;DHT22;23709;48.078;11.684;2023-07-13T12:42:25;26.10;75.50
37874;DHT22;23709;48.078;11.684;2023-07-13T12:45:02;26.50;74.50
37874;DHT22;23709;48.078;11.684;2023-07-13T12:47:40;26.50;71.40
37874;DHT22;23709;48.078;11.684;2023-07-13T12:50:17;26.30;75.40
37874;DHT22;23709;48.078;11.684;2023-07-13T12:52:50;26.50;77.00
37874;DHT22;23709;48.078;11.684;2023-07-13T12:55:23;25.90;72.60
37874;DHT22;23709;48.078;11.684;2023-07-13T12:57:56;26.30;78.10
37874;DHT22;23709;48.078;11.684;2023-07-13T13:00:31;26.70;76.40
37874;DHT22;23709;48.078;11.684;2023-07-13T13:03:11;26.90;73.00
37874;DHT22;23709;48.078;11.684;2023-07-13T13:05:57;26.50;74.00
37874;DHT22;23709;48.078;11.684;2023-07-13T13:08:33;25.80;74.10
37874;DHT22;23709;48.078;11.684;2023-07-13T13:11:05;25.30;76.60
37874;DHT22;23709;48.078;11.684;2023-07-13T13:13:37;25.10;74.60
37874;DHT22;23709;48.078;11.684;2023-07-13T13:18:45;25.50;74.20
37874;DHT22;23709;48.078;11.684;2023-07-13T13:21:17;25.50;76.50
37874;DHT22;23709;48.078;11.684;2023-07-13T13:23:50;25.80;75.10
37874;DHT22;23709;48.078;11.684;2023-07-13T13:26:23;26.20;74.30
37874;DHT22;23709;48.078;11.684;2023-07-13T13:28:56;26.20;75.50
37874;DHT22;23709;48.078;11.684;2023-07-13T13:31:28;25.80;73.10
37874;DHT22;23709;48.078;11.684;2023-07-13T13:34:00;25.50;77.00
37874;DHT22;23709;48.078;11.684;2023-07-13T13:36:32;25.40;76.10
37874;DHT22;23709;48.078;11.684;2023-07-13T13:39:10;25.20;76.90
37874;DHT22;23709;48.078;11.684;2023-07-13T13:41:47;25.00;78.10
37874;DHT22;23709;48.078;11.684;2023-07-13T13:44:20;24.80;77.10
37874;DHT22;23709;48.078;11.684;2023-07-13T13:46:54;24.70;77.60
37874;DHT22;23709;48.078;11.684;2023-07-13T13:49:27;24.70;75.10
37874;DHT22;23709;48.078;11.684;2023-07-13T13:52:00;24.50;77.60
37874;DHT22;23709;48.078;11.684;2023-07-13T13:54:32;24.40;76.30
37874;DHT22;23709;48.078;11.684;2023-07-13T13:57:04;24.00;76.20
37874;DHT22;23709;48.078;11.684;2023-07-13T13:59:39;23.90;77.70
37874;DHT22;23709;48.078;11.684;2023-07-13T14:02:22;24.40;77.50
37874;DHT22;23709;48.078;11.684;2023-07-13T14:04:59;24.70;76.20
37874;DHT22;23709;48.078;11.684;2023-07-13T14:07:32;24.70;75.90
37874;DHT22;23709;48.078;11.684;2023-07-13T14:10:10;24.80;75.60
37874;DHT22;23709;48.078;11.684;2023-07-13T14:12:43;24.70;74.80
37874;DHT22;23709;48.078;11.684;2023-07-13T14:17:57;24.60;78.20
37874;DHT22;23709;48.078;11.684;2023-07-13T14:20:29;25.00;74.30
37874;DHT22;23709;48.078;11.684;2023-07-13T14:23:02;25.20;73.50
37874;DHT22;23709;48.078;11.684;2023-07-13T14:25:34;24.80;73.90
37874;DHT22;23709;48.078;11.684;2023-07-13T14:30:52;24.90;75.50
37874;DHT22;23709;48.078;11.684;2023-07-13T14:33:27;25.00;73.50
37874;DHT22;23709;48.078;11.684;2023-07-13T14:35:59;25.10;75.60
37874;DHT22;23709;48.078;11.684;2023-07-13T14:38:31;25.70;74.50
37874;DHT22;23709;48.078;11.684;2023-07-13T14:41:03;25.70;72.70
37874;DHT22;23709;48.078;11.684;2023-07-13T14:43:37;25.90;74.30
37874;DHT22;23709;48.078;11.684;2023-07-13T14:46:16;26.50;74.30
37874;DHT22;23709;48.078;11.684;2023-07-13T14:48:50;26.90;70.10
37874;DHT22;23709;48.078;11.684;2023-07-13T14:51:23;26.70;68.90
37874;DHT22;23709;48.078;11.684;2023-07-13T14:53:55;26.70;68.70
37874;DHT22;23709;48.078;11.684;2023-07-13T14:56:28;27.10;69.10
37874;DHT22;23709;48.078;11.684;2023-07-13T14:59:00;26.80;67.90
37874;DHT22;23709;48.078;11.684;2023-07-13T15:01:36;26.70;69.70
37874;DHT22;23709;48.078;11.684;2023-07-13T15:04:09;26.80;69.30
37874;DHT22;23709;48.078;11.684;2023-07-13T15:06:55;27.00;68.70
37874;DHT22;23709;48.078;11.684;2023-07-13T15:09:28;26.90;68.50
37874;DHT22;23709;48.078;11.684;2023-07-13T15:12:03;27.00;70.10
37874;DHT22;23709;48.078;11.684;2023-07-13T15:14:38;27.00;67.10
37874;DHT22;23709;48.078;11.684;2023-07-13T15:17:18;26.90;68.00
37874;DHT22;23709;48.078;11.684;2023-07-13T15:19:55;27.20;67.60
37874;DHT22;23709;48.078;11.684;2023-07-13T15:22:28;27.50;65.80
37874;DHT22;23709;48.078;11.684;2023-07-13T15:25:00;27.40;69.10
37874;DHT22;23709;48.078;11.684;2023-07-13T15:27:37;27.20;67.60
37874;DHT22;23709;48.078;11.684;2023-07-13T15:30:10;27.20;66.10
37874;DHT22;23709;48.078;11.684;2023-07-13T15:32:46;27.00;66.20
37874;DHT22;23709;48.078;11.684;2023-07-13T15:35:20;26.50;65.60
37874;DHT22;23709;48.078;11.684;2023-07-13T15:37:53;25.90;65.20
37874;DHT22;23709;48.078;11.684;2023-07-13T15:40:26;26.10;69.90
37874;DHT22;23709;48.078;11.684;2023-07-13T15:42:58;26.30;65.30
37874;DHT22;23709;48.078;11.684;2023-07-13T15:45:31;26.50;66.50
37874;DHT22;23709;48.078;11.684;2023-07-13T15:48:04;26.90;66.50
37874;DHT22;23709;48.078;11.684;2023-07-13T15:50:50;27.00;66.00
37874;DHT22;23709;48.078;11.684;2023-07-13T15:53:24;27.10;64.30
37874;DHT22;23709;48.078;11.684;2023-07-13T15:55:56;27.10;64.50
37874;DHT22;23709;48.078;11.684;2023-07-13T15:58:29;27.10;64.50
37874;DHT22;23709;48.078;11.684;2023-07-13T16:01:01;26.70;64.60
37874;DHT22;23709;48.078;11.684;2023-07-13T16:03:33;26.50;64.60
37874;DHT22;23709;48.078;11.684;2023-07-13T16:06:11;27.00;64.30
37874;DHT22;23709;48.078;11.684;2023-07-13T16:08:45;27.90;61.70
37874;DHT22;23709;48.078;11.684;2023-07-13T16:11:29;27.80;61.90
37874;DHT22;23709;48.078;11.684;2023-07-13T16:14:04;27.40;60.60
37874;DHT22;23709;48.078;11.684;2023-07-13T16:16:37;27.40;62.90
37874;DHT22;23709;48.078;11.684;2023-07-13T16:19:10;27.40;63.20
37874;DHT22;23709;48.078;11.684;2023-07-13T16:21:46;27.30;61.60
37874;DHT22;23709;48.078;11.684;2023-07-13T16:24:23;27.20;61.90
37874;DHT22;23709;48.078;11.684;2023-07-13T16:26:57;27.10;63.20
37874;DHT22;23709;48.078;11.684;2023-07-13T16:29:30;27.10;61.90
37874;DHT22;23709;48.078;11.684;2023-07-13T16:32:10;27.60;61.00
37874;DHT22;23709;48.078;11.684;2023-07-13T16:34:43;27.70;60.50
37874;DHT22;23709;48.078;11.684;2023-07-13T16:39:50;27.50;60.30
37874;DHT22;23709;48.078;11.684;2023-07-13T16:42:25;27.50;60.10
37874;DHT22;23709;48.078;11.684;2023-07-13T16:44:57;27.50;60.40
37874;DHT22;23709;48.078;11.684;2023-07-13T16:47:30;27.90;60.30
37874;DHT22;23709;48.078;11.684;2023-07-13T16:50:04;28.20;59.30
37874;DHT22;23709;48.078;11.684;2023-07-13T16:52:41;28.10;59.50
37874;DHT22;23709;48.078;11.684;2023-07-13T16:55:14;28.60;59.40
37874;DHT22;23709;48.078;11.684;2023-07-13T16:57:50;28.20;60.00
37874;DHT22;23709;48.078;11.684;2023-07-13T17:00:26;27.90;62.10
37874;DHT22;23709;48.078;11.684;2023-07-13T17:03:00;27.40;61.10
37874;DHT22;23709;48.078;11.684;2023-07-13T17:05:40;26.90;62.30
37874;DHT22;23709;48.078;11.684;2023-07-13T17:08:17;26.50;62.70
37874;DHT22;23709;48.078;11.684;2023-07-13T17:10:52;26.20;64.70
37874;DHT22;23709;48.078;11.684;2023-07-13T17:13:28;25.80;64.00
37874;DHT22;23709;48.078;11.684;2023-07-13T17:16:01;25.50;65.60
37874;DHT22;23709;48.078;11.684;2023-07-13T17:18:33;25.30;65.50
37874;DHT22;23709;48.078;11.684;2023-07-13T17:21:10;24.90;66.30
37874;DHT22;23709;48.078;11.684;2023-07-13T17:23:44;24.80;67.40
37874;DHT22;23709;48.078;11.684;2023-07-13T17:26:17;24.80;66.30
37874;DHT22;23709;48.078;11.684;2023-07-13T17:28:50;24.70;67.20
37874;DHT22;23709;48.078;11.684;2023-07-13T17:31:22;24.40;68.90
37874;DHT22;23709;48.078;11.684;2023-07-13T17:33:55;24.30;68.50
37874;DHT22;23709;48.078;11.684;2023-07-13T17:36:29;24.10;68.80
37874;DHT22;23709;48.078;11.684;2023-07-13T17:39:01;24.10;70.40
37874;DHT22;23709;48.078;11.684;2023-07-13T17:41:36;24.10;71.90
37874;DHT22;23709;48.078;11.684;2023-07-13T17:44:12;24.00;72.00
37874;DHT22;23709;48.078;11.684;2023-07-13T17:46:45;24.00;71.20
37874;DHT22;23709;48.078;11.684;2023-07-13T17:49:22;23.90;71.20
37874;DHT22;23709;48.078;11.684;2023-07-13T17:52:03;23.80;72.00
37874;DHT22;23709;48.078;11.684;2023-07-13T17:54:37;23.70;71.60
37874;DHT22;23709;48.078;11.684;2023-07-13T17:57:09;23.60;72.90
37874;DHT22;23709;48.078;11.684;2023-07-13T17:59:42;23.40;71.80
37874;DHT22;23709;48.078;11.684;2023-07-13T18:02:18;23.40;71.20
37874;DHT22;23709;48.078;11.684;2023-07-13T18:04:53;23.30;71.30
37874;DHT22;23709;48.078;11.684;2023-07-13T18:07:26;23.00;71.70
37874;DHT22;23709;48.078;11.684;2023-07-13T18:10:00;23.00;72.40
37874;DHT22;23709;48.078;11.684;2023-07-13T18:12:33;23.10;72.90
37874;DHT22;23709;48.078;11.684;2023-07-13T18:15:09;23.00;73.30
37874;DHT22;23709;48.078;11.684;2023-07-13T18:17:45;23.00;73.50
37874;DHT22;23709;48.078;11.684;2023-07-13T18:20:19;22.90;73.00
37874;DHT22;23709;48.078;11.684;2023-07-13T18:22:53;22.80;74.40
37874;DHT22;23709;48.078;11.684;2023-07-13T18:25:26;22.70;73.70
37874;DHT22;23709;48.078;11.684;2023-07-13T18:27:59;22.60;74.40
37874;DHT22;23709;48.078;11.684;2023-07-13T18:30:31;22.50;76.20
37874;DHT22;23709;48.078;11.684;2023-07-13T18:33:04;22.60;76.10
37874;DHT22;23709;48.078;11.684;2023-07-13T18:35:37;22.50;78.40
37874;DHT22;23709;48.078;11.684;2023-07-13T18:38:14;22.50;79.70
37874;DHT22;23709;48.078;11.684;2023-07-13T18:40:47;22.40;77.70
37874;DHT22;23709;48.078;11.684;2023-07-13T18:43:20;22.30;78.60
37874;DHT22;23709;48.078;11.684;2023-07-13T18:45:58;22.50;76.70
37874;DHT22;23709;48.078;11.684;2023-07-13T18:48:32;22.50;76.90
37874;DHT22;23709;48.078;11.684;2023-07-13T18:51:04;22.40;80.00
37874;DHT22;23709;48.078;11.684;2023-07-13T18:53:38;22.30;77.90
37874;DHT22;23709;48.078;11.684;2023-07-13T18:56:10;22.30;81.10
37874;DHT22;23709;48.078;11.684;2023-07-13T18:58:44;22.20;81.80
37874;DHT22;23709;48.078;11.684;2023-07-13T19:01:24;22.20;78.60
37874;DHT22;23709;48.078;11.684;2023-07-13T19:03:58;22.10;82.80
37874;DHT22;23709;48.078;11.684;2023-07-13T19:06:33;22.00;83.30
37874;DHT22;23709;48.078;11.684;2023-07-13T19:09:08;22.00;82.60
37874;DHT22;23709;48.078;11.684;2023-07-13T19:11:41;21.90;81.70
37874;DHT22;23709;48.078;11.684;2023-07-13T19:14:14;22.00;82.60
37874;DHT22;23709;48.078;11.684;2023-07-13T19:16:48;21.90;82.00
37874;DHT22;23709;48.078;11.684;2023-07-13T19:19:20;22.00;82.30
37874;DHT22;23709;48.078;11.684;2023-07-13T19:21:53;22.10;82.60
37874;DHT22;23709;48.078;11.684;2023-07-13T19:24:28;22.10;85.00
37874;DHT22;23709;48.078;11.684;2023-07-13T19:27:00;22.10;81.50
37874;DHT22;23709;48.078;11.684;2023-07-13T19:29:32;22.20;81.10
37874;DHT22;23709;48.078;11.684;2023-07-13T19:32:08;22.00;81.60
37874;DHT22;23709;48.078;11.684;2023-07-13T19:34:41;21.90;82.20
37874;DHT22;23709;48.078;11.684;2023-07-13T19:37:20;21.80;83.30
37874;DHT22;23709;48.078;11.684;2023-07-13T19:39:53;21.80;84.20
37874;DHT22;23709;48.078;11.684;2023-07-13T19:42:26;21.80;85.40
37874;DHT22;23709;48.078;11.684;2023-07-13T19:44:59;21.60;85.90
37874;DHT22;23709;48.078;11.684;2023-07-13T19:47:32;21.60;86.70
37874;DHT22;23709;48.078;11.684;2023-07-13T19:50:05;21.50;87.80
37874;DHT22;23709;48.078;11.684;2023-07-13T19:52:37;21.40;88.00
37874;DHT22;23709;48.078;11.684;2023-07-13T19:55:14;21.40;89.30
37874;DHT22;23709;48.078;11.684;2023-07-13T19:57:50;21.40;90.10
37874;DHT22;23709;48.078;11.684;2023-07-13T20:00:25;21.20;90.10
37874;DHT22;23709;48.078;11.684;2023-07-13T20:02:57;21.20;90.50
37874;DHT22;23709;48.078;11.684;2023-07-13T20:05:29;21.10;91.00
37874;DHT22;23709;48.078;11.684;2023-07-13T20:08:04;21.10;91.60
37874;DHT22;23709;48.078;11.684;2023-07-13T20:10:37;21.10;91.80
37874;DHT22;23709;48.078;11.684;2023-07-13T20:13:13;21.00;91.90
37874;DHT22;23709;48.078;11.684;2023-07-13T20:15:52;21.10;92.20
37874;DHT22;23709;48.078;11.684;2023-07-13T20:18:24;21.10;92.50
37874;DHT22;23709;48.078;11.684;2023-07-13T20:20:56;21.00;92.50
37874;DHT22;23709;48.078;11.684;2023-07-13T20:23:28;21.00;92.90
37874;DHT22;23709;48.078;11.684;2023-07-13T20:26:01;20.90;93.20
37874;DHT22;23709;48.078;11.684;2023-07-13T20:28:33;20.90;93.50
37874;DHT22;23709;48.078;11.684;2023-07-13T20:31:11;20.80;94.20
37874;DHT22;23709;48.078;11.684;2023-07-13T20:33:44;20.80;94.40
37874;DHT22;23709;48.078;11.684;2023-07-13T20:36:16;20.80;94.30
37874;DHT22;23709;48.078;11.684;2023-07-13T20:38:49;20.80;94.90
37874;DHT22;23709;48.078;11.684;2023-07-13T20:41:21;20.70;94.50
37874;DHT22;23709;48.078;11.684;2023-07-13T20:43:53;20.80;95.00
37874;DHT22;23709;48.078;11.684;2023-07-13T20:46:25;20.80;95.30
37874;DHT22;23709;48.078;11.684;2023-07-13T20:48:58;20.70;95.40
37874;DHT22;23709;48.078;11.684;2023-07-13T20:51:31;20.70;95.80
37874;DHT22;23709;48.078;11.684;2023-07-13T20:54:03;20.70;96.10
37874;DHT22;23709;48.078;11.684;2023-07-13T20:56:36;20.60;96.10
37874;DHT22;23709;48.078;11.684;2023-07-13T20:59:08;20.60;96.50
37874;DHT22;23709;48.078;11.684;2023-07-13T21:01:40;20.50;96.80
37874;DHT22;23709;48.078;11.684;2023-07-13T21:04:13;20.40;97.00
37874;DHT22;23709;48.078;11.684;2023-07-13T21:06:46;20.40;97.30
37874;DHT22;23709;48.078;11.684;2023-07-13T21:09:19;20.30;97.80
37874;DHT22;23709;48.078;11.684;2023-07-13T21:11:57;20.30;98.10
37874;DHT22;23709;48.078;11.684;2023-07-13T21:14:29;20.20;98.80
37874;DHT22;23709;48.078;11.684;2023-07-13T21:17:02;20.10;99.10
37874;DHT22;23709;48.078;11.684;2023-07-13T21:19:34;20.10;99.30
37874;DHT22;23709;48.078;11.684;2023-07-13T21:22:10;20.20;99.40
37874;DHT22;23709;48.078;11.684;2023-07-13T21:24:43;20.20;99.50
37874;DHT22;23709;48.078;11.684;2023-07-13T21:27:15;20.10;99.90
37874;DHT22;23709;48.078;11.684;2023-07-13T21:29:47;20.10;99.90
37874;DHT22;23709;48.078;11.684;2023-07-13T21:32:26;20.10;99.90
37874;DHT22;23709;48.078;11.684;2023-07-13T21:34:58;20.10;99.90
37874;DHT22;23709;48.078;11.684;2023-07-13T21:37:34;20.10;99.90
37874;DHT22;23709;48.078;11.684;2023-07-13T21:40:08;20.10;99.90
37874;DHT22;23709;48.078;11.684;2023-07-13T21:42:44;20.00;99.90
37874;DHT22;23709;48.078;11.684;2023-07-13T21:45:21;19.90;99.90
37874;DHT22;23709;48.078;11.684;2023-07-13T21:47:54;19.90;99.90
37874;DHT22;23709;48.078;11.684;2023-07-13T21:51:13;19.80;99.90
37874;DHT22;23709;48.078;11.684;2023-07-13T21:53:30;19.70;99.90
37874;DHT22;23709;48.078;11.684;2023-07-13T21:56:02;19.80;99.90
37874;DHT22;23709;48.078;11.684;2023-07-13T21:58:35;19.70;99.90
37874;DHT22;23709;48.078;11.684;2023-07-13T22:01:13;19.70;99.90
37874;DHT22;23709;48.078;11.684;2023-07-13T22:03:47;19.60;99.90
37874;DHT22;23709;48.078;11.684;2023-07-13T22:06:21;19.50;99.90
37874;DHT22;23709;48.078;11.684;2023-07-13T22:08:54;19.40;99.90
37874;DHT22;23709;48.078;11.684;2023-07-13T22:11:29;19.40;99.90
37874;DHT22;23709;48.078;11.684;2023-07-13T22:14:01;19.30;99.90
37874;DHT22;23709;48.078;11.684;2023-07-13T22:16:33;19.30;99.90
37874;DHT22;23709;48.078;11.684;2023-07-13T22:19:09;19.20;99.90
37874;DHT22;23709;48.078;11.684;2023-07-13T22:21:42;19.20;99.90
37874;DHT22;23709;48.078;11.684;2023-07-13T22:24:17;19.10;99.90
37874;DHT22;23709;48.078;11.684;2023-07-13T22:26:49;19.00;99.90
37874;DHT22;23709;48.078;11.684;2023-07-13T22:29:23;18.90;99.90
37874;DHT22;23709;48.078;11.684;2023-07-13T22:31:56;18.90;99.90
37874;DHT22;23709;48.078;11.684;2023-07-13T22:34:28;18.80;99.90
37874;DHT22;23709;48.078;11.684;2023-07-13T22:37:01;18.80;99.90
37874;DHT22;23709;48.078;11.684;2023-07-13T22:39:33;18.80;99.90
37874;DHT22;23709;48.078;11.684;2023-07-13T22:42:07;18.70;99.90
37874;DHT22;23709;48.078;11.684;2023-07-13T22:44:39;18.70;99.90
37874;DHT22;23709;48.078;11.684;2023-07-13T22:47:14;18.60;99.90
37874;DHT22;23709;48.078;11.684;2023-07-13T22:49:47;18.50;99.90
37874;DHT22;23709;48.078;11.684;2023-07-13T22:52:19;18.60;99.90
37874;DHT22;23709;48.078;11.684;2023-07-13T22:54:51;18.60;99.90
37874;DHT22;23709;48.078;11.684;2023-07-13T22:57:23;18.50;99.90
37874;DHT22;23709;48.078;11.684;2023-07-13T22:59:56;18.40;99.90
37874;DHT22;23709;48.078;11.684;2023-07-13T23:02:29;18.30;99.90
37874;DHT22;23709;48.078;11.684;2023-07-13T23:05:01;18.20;99.90
37874;DHT22;23709;48.078;11.684;2023-07-13T23:07:37;18.10;99.90
37874;DHT22;23709;48.078;11.684;2023-07-13T23:10:14;18.10;99.90
37874;DHT22;23709;48.078;11.684;2023-07-13T23:12:46;18.10;99.90
37874;DHT22;23709;48.078;11.684;2023-07-13T23:15:18;18.10;99.90
37874;DHT22;23709;48.078;11.684;2023-07-13T23:17:52;18.00;99.90
37874;DHT22;23709;48.078;11.684;2023-07-13T23:20:34;18.00;99.90
37874;DHT22;23709;48.078;11.684;2023-07-13T23:23:10;18.00;99.90
37874;DHT22;23709;48.078;11.684;2023-07-13T23:25:43;18.10;99.90
37874;DHT22;23709;48.078;11.684;2023-07-13T23:28:15;18.00;99.90
37874;DHT22;23709;48.078;11.684;2023-07-13T23:30:48;17.90;99.90
37874;DHT22;23709;48.078;11.684;2023-07-13T23:33:24;17.90;99.90
37874;DHT22;23709;48.078;11.684;2023-07-13T23:35:57;17.90;99.90
37874;DHT22;23709;48.078;11.684;2023-07-13T23:38:30;17.80;99.90
37874;DHT22;23709;48.078;11.684;2023-07-13T23:41:04;17.80;99.90
37874;DHT22;23709;48.078;11.684;2023-07-13T23:43:37;17.90;99.90
37874;DHT22;23709;48.078;11.684;2023-07-13T23:46:15;17.80;99.90
37874;DHT22;23709;48.078;11.684;2023-07-13T23:48:55;17.70;99.90
37874;DHT22;23709;48.078;11.684;2023-07-13T23:51:29;17.70;99.90
37874;DHT22;23709;48.078;11.684;2023-07-13T23:54:01;17.70;99.90
37874;DHT22;23709;48.078;11.684;2023-07-13T23:56:34;17.70;99.90
37874;DHT22;23709;48.078;11.684;2023-07-13T23:59:07;17.70;99.90
